sensor_id;sensor_type;location;lat;lon;timestamp;temperature;humidity
19248;DHT22;9758;48.640;8.148;2022-09-17T00:00:49;14.80;57.30
19248;DHT22;9758;48.640;8.148;2022-09-17T00:03:16;14.80;57.30
19248;DHT22;9758;48.640;8.148;2022-09-17T00:05:44;14.70;57.30
19248;DHT22;9758;48.640;8.148;2022-09-17T00:08:13;14.70;57.40
19248;DHT22;9758;48.640;8.148;2022-09-17T00:10:42;14.70;57.50
19248;DHT22;9758;48.640;8.148;2022-09-17T00:13:11;14.70;57.50
19248;DHT22;9758;48.640;8.148;2022-09-17T00:15:41;14.70;57.50
19248;DHT22;9758;48.640;8.148;2022-09-17T00:18:11;14.70;57.50
19248;DHT22;9758;48.640;8.148;2022-09-17T00:20:38;14.70;57.50
19248;DHT22;9758;48.640;8.148;2022-09-17T00:23:06;14.70;57.50
19248;DHT22;9758;48.640;8.148;2022-09-17T00:25:33;14.70;57.40
19248;DHT22;9758;48.640;8.148;2022-09-17T00:28:02;14.70;57.40
19248;DHT22;9758;48.640;8.148;2022-09-17T00:30:31;14.70;57.30
19248;DHT22;9758;48.640;8.148;2022-09-17T00:32:58;14.60;57.30
19248;DHT22;9758;48.640;8.148;2022-09-17T00:35:26;14.60;57.40
19248;DHT22;9758;48.640;8.148;2022-09-17T00:37:53;14.60;57.50
19248;DHT22;9758;48.640;8.148;2022-09-17T00:40:20;14.60;57.50
19248;DHT22;9758;48.640;8.148;2022-09-17T00:42:47;14.70;57.60
19248;DHT22;9758;48.640;8.148;2022-09-17T00:45:14;14.70;57.50
19248;DHT22;9758;48.640;8.148;2022-09-17T00:47:45;14.70;57.40
19248;DHT22;9758;48.640;8.148;2022-09-17T00:50:16;14.60;57.30
19248;DHT22;9758;48.640;8.148;2022-09-17T00:52:48;14.60;57.30
19248;DHT22;9758;48.640;8.148;2022-09-17T00:55:19;14.50;57.30
19248;DHT22;9758;48.640;8.148;2022-09-17T00:57:47;14.50;58.00
19248;DHT22;9758;48.640;8.148;2022-09-17T01:00:17;14.40;57.40
19248;DHT22;9758;48.640;8.148;2022-09-17T01:02:44;14.30;57.50
19248;DHT22;9758;48.640;8.148;2022-09-17T01:05:12;14.40;57.60
19248;DHT22;9758;48.640;8.148;2022-09-17T01:08:06;14.40;57.60
19248;DHT22;9758;48.640;8.148;2022-09-17T01:11:05;14.30;58.20
19248;DHT22;9758;48.640;8.148;2022-09-17T01:13:53;14.30;57.50
19248;DHT22;9758;48.640;8.148;2022-09-17T01:16:29;14.30;57.60
19248;DHT22;9758;48.640;8.148;2022-09-17T01:19:09;14.30;57.60
19248;DHT22;9758;48.640;8.148;2022-09-17T01:21:50;14.30;57.60
19248;DHT22;9758;48.640;8.148;2022-09-17T01:24:44;14.30;57.50
19248;DHT22;9758;48.640;8.148;2022-09-17T01:27:59;14.30;57.50
19248;DHT22;9758;48.640;8.148;2022-09-17T01:31:19;14.30;58.20
19248;DHT22;9758;48.640;8.148;2022-09-17T01:33:57;14.30;57.60
19248;DHT22;9758;48.640;8.148;2022-09-17T01:36:39;14.30;57.50
19248;DHT22;9758;48.640;8.148;2022-09-17T01:39:16;14.30;57.60
19248;DHT22;9758;48.640;8.148;2022-09-17T01:41:52;14.30;57.60
19248;DHT22;9758;48.640;8.148;2022-09-17T01:44:25;14.30;57.50
19248;DHT22;9758;48.640;8.148;2022-09-17T01:47:00;14.30;57.50
19248;DHT22;9758;48.640;8.148;2022-09-17T01:49:35;14.20;57.40
19248;DHT22;9758;48.640;8.148;2022-09-17T01:52:03;14.20;57.60
19248;DHT22;9758;48.640;8.148;2022-09-17T01:54:33;14.10;57.70
19248;DHT22;9758;48.640;8.148;2022-09-17T01:57:03;14.10;57.70
19248;DHT22;9758;48.640;8.148;2022-09-17T01:59:37;14.10;57.70
19248;DHT22;9758;48.640;8.148;2022-09-17T02:02:11;14.10;57.50
19248;DHT22;9758;48.640;8.148;2022-09-17T02:04:42;14.00;57.60
19248;DHT22;9758;48.640;8.148;2022-09-17T02:07:14;14.00;57.70
19248;DHT22;9758;48.640;8.148;2022-09-17T02:09:47;14.00;57.70
19248;DHT22;9758;48.640;8.148;2022-09-17T02:12:18;14.10;57.80
19248;DHT22;9758;48.640;8.148;2022-09-17T02:14:48;14.00;57.70
19248;DHT22;9758;48.640;8.148;2022-09-17T02:17:21;14.00;57.80
19248;DHT22;9758;48.640;8.148;2022-09-17T02:19:50;14.00;57.80
19248;DHT22;9758;48.640;8.148;2022-09-17T02:22:22;14.00;57.80
19248;DHT22;9758;48.640;8.148;2022-09-17T02:24:57;14.00;57.90
19248;DHT22;9758;48.640;8.148;2022-09-17T02:27:34;14.00;57.90
19248;DHT22;9758;48.640;8.148;2022-09-17T02:30:03;14.00;57.70
19248;DHT22;9758;48.640;8.148;2022-09-17T02:32:32;14.10;57.80
19248;DHT22;9758;48.640;8.148;2022-09-17T02:34:59;14.10;57.80
19248;DHT22;9758;48.640;8.148;2022-09-17T02:37:26;14.10;57.80
19248;DHT22;9758;48.640;8.148;2022-09-17T02:39:54;14.10;57.70
19248;DHT22;9758;48.640;8.148;2022-09-17T02:42:30;14.10;57.70
19248;DHT22;9758;48.640;8.148;2022-09-17T02:45:04;14.10;57.70
19248;DHT22;9758;48.640;8.148;2022-09-17T02:47:59;14.20;57.70
19248;DHT22;9758;48.640;8.148;2022-09-17T02:50:39;14.20;57.70
19248;DHT22;9758;48.640;8.148;2022-09-17T02:53:18;14.20;57.60
19248;DHT22;9758;48.640;8.148;2022-09-17T02:55:58;14.20;57.70
19248;DHT22;9758;48.640;8.148;2022-09-17T02:58:31;14.20;57.70
19248;DHT22;9758;48.640;8.148;2022-09-17T03:01:06;14.20;57.70
19248;DHT22;9758;48.640;8.148;2022-09-17T03:03:38;14.20;57.60
19248;DHT22;9758;48.640;8.148;2022-09-17T03:06:06;14.20;57.60
19248;DHT22;9758;48.640;8.148;2022-09-17T03:08:35;14.20;57.60
19248;DHT22;9758;48.640;8.148;2022-09-17T03:11:03;14.20;57.60
19248;DHT22;9758;48.640;8.148;2022-09-17T03:13:31;14.20;57.60
19248;DHT22;9758;48.640;8.148;2022-09-17T03:15:59;14.20;57.60
19248;DHT22;9758;48.640;8.148;2022-09-17T03:18:26;14.20;57.60
19248;DHT22;9758;48.640;8.148;2022-09-17T03:20:54;14.20;57.60
19248;DHT22;9758;48.640;8.148;2022-09-17T03:23:21;14.10;57.60
19248;DHT22;9758;48.640;8.148;2022-09-17T03:25:48;14.20;57.70
19248;DHT22;9758;48.640;8.148;2022-09-17T03:28:15;14.10;57.60
19248;DHT22;9758;48.640;8.148;2022-09-17T03:30:43;14.10;57.50
19248;DHT22;9758;48.640;8.148;2022-09-17T03:33:11;14.10;57.60
19248;DHT22;9758;48.640;8.148;2022-09-17T03:35:41;14.00;57.60
19248;DHT22;9758;48.640;8.148;2022-09-17T03:38:09;14.00;57.60
19248;DHT22;9758;48.640;8.148;2022-09-17T03:40:36;13.90;57.60
19248;DHT22;9758;48.640;8.148;2022-09-17T03:43:05;13.80;57.60
19248;DHT22;9758;48.640;8.148;2022-09-17T03:45:32;13.80;57.80
19248;DHT22;9758;48.640;8.148;2022-09-17T03:47:59;13.80;57.90
19248;DHT22;9758;48.640;8.148;2022-09-17T03:50:26;13.80;57.90
19248;DHT22;9758;48.640;8.148;2022-09-17T03:52:53;13.80;57.90
19248;DHT22;9758;48.640;8.148;2022-09-17T03:55:21;13.80;57.90
19248;DHT22;9758;48.640;8.148;2022-09-17T03:57:49;13.80;57.90
19248;DHT22;9758;48.640;8.148;2022-09-17T04:00:18;13.80;57.80
19248;DHT22;9758;48.640;8.148;2022-09-17T04:02:45;13.80;57.80
19248;DHT22;9758;48.640;8.148;2022-09-17T04:05:14;13.80;57.80
19248;DHT22;9758;48.640;8.148;2022-09-17T04:07:41;13.70;57.80
19248;DHT22;9758;48.640;8.148;2022-09-17T04:10:08;13.70;57.90
19248;DHT22;9758;48.640;8.148;2022-09-17T04:12:38;13.70;57.90
19248;DHT22;9758;48.640;8.148;2022-09-17T04:15:06;13.60;57.80
19248;DHT22;9758;48.640;8.148;2022-09-17T04:17:33;13.60;57.90
19248;DHT22;9758;48.640;8.148;2022-09-17T04:20:00;13.60;58.00
19248;DHT22;9758;48.640;8.148;2022-09-17T04:22:27;13.60;58.00
19248;DHT22;9758;48.640;8.148;2022-09-17T04:24:54;13.60;58.10
19248;DHT22;9758;48.640;8.148;2022-09-17T04:27:21;13.60;57.90
19248;DHT22;9758;48.640;8.148;2022-09-17T04:29:49;13.60;58.00
19248;DHT22;9758;48.640;8.148;2022-09-17T04:32:16;13.60;58.10
19248;DHT22;9758;48.640;8.148;2022-09-17T04:34:46;13.50;58.10
19248;DHT22;9758;48.640;8.148;2022-09-17T04:37:13;13.50;58.00
19248;DHT22;9758;48.640;8.148;2022-09-17T04:39:40;13.50;58.00
19248;DHT22;9758;48.640;8.148;2022-09-17T04:42:07;13.40;58.10
19248;DHT22;9758;48.640;8.148;2022-09-17T04:44:34;13.40;58.10
19248;DHT22;9758;48.640;8.148;2022-09-17T04:47:04;13.40;58.10
19248;DHT22;9758;48.640;8.148;2022-09-17T04:49:34;13.40;58.10
19248;DHT22;9758;48.640;8.148;2022-09-17T04:52:01;13.40;58.10
19248;DHT22;9758;48.640;8.148;2022-09-17T04:54:31;13.40;58.10
19248;DHT22;9758;48.640;8.148;2022-09-17T04:56:58;13.40;58.20
19248;DHT22;9758;48.640;8.148;2022-09-17T04:59:25;13.30;58.10
19248;DHT22;9758;48.640;8.148;2022-09-17T05:01:52;13.40;58.20
19248;DHT22;9758;48.640;8.148;2022-09-17T05:04:21;13.30;58.20
19248;DHT22;9758;48.640;8.148;2022-09-17T05:06:48;13.40;58.80
19248;DHT22;9758;48.640;8.148;2022-09-17T05:09:15;13.30;58.10
19248;DHT22;9758;48.640;8.148;2022-09-17T05:11:42;13.20;58.10
19248;DHT22;9758;48.640;8.148;2022-09-17T05:14:09;13.20;58.20
19248;DHT22;9758;48.640;8.148;2022-09-17T05:16:35;13.20;58.30
19248;DHT22;9758;48.640;8.148;2022-09-17T05:19:02;13.10;58.30
19248;DHT22;9758;48.640;8.148;2022-09-17T05:21:30;13.00;58.30
19248;DHT22;9758;48.640;8.148;2022-09-17T05:23:57;13.00;58.40
19248;DHT22;9758;48.640;8.148;2022-09-17T05:26:25;13.00;58.40
19248;DHT22;9758;48.640;8.148;2022-09-17T05:28:53;13.10;58.40
19248;DHT22;9758;48.640;8.148;2022-09-17T05:31:20;13.00;58.40
19248;DHT22;9758;48.640;8.148;2022-09-17T05:33:47;13.00;58.30
19248;DHT22;9758;48.640;8.148;2022-09-17T05:36:14;13.00;58.40
19248;DHT22;9758;48.640;8.148;2022-09-17T05:38:42;13.00;58.40
19248;DHT22;9758;48.640;8.148;2022-09-17T05:41:09;13.00;58.40
19248;DHT22;9758;48.640;8.148;2022-09-17T05:43:35;13.00;58.40
19248;DHT22;9758;48.640;8.148;2022-09-17T05:46:03;13.00;58.40
19248;DHT22;9758;48.640;8.148;2022-09-17T05:48:31;13.00;58.50
19248;DHT22;9758;48.640;8.148;2022-09-17T05:50:58;13.00;58.50
19248;DHT22;9758;48.640;8.148;2022-09-17T05:53:25;13.00;58.50
19248;DHT22;9758;48.640;8.148;2022-09-17T05:55:56;13.10;58.50
19248;DHT22;9758;48.640;8.148;2022-09-17T05:58:23;13.10;58.40
19248;DHT22;9758;48.640;8.148;2022-09-17T06:00:50;13.10;58.30
19248;DHT22;9758;48.640;8.148;2022-09-17T06:03:18;13.10;58.30
19248;DHT22;9758;48.640;8.148;2022-09-17T06:05:52;13.10;58.40
19248;DHT22;9758;48.640;8.148;2022-09-17T06:08:19;13.10;58.50
19248;DHT22;9758;48.640;8.148;2022-09-17T06:10:46;13.10;58.50
19248;DHT22;9758;48.640;8.148;2022-09-17T06:13:14;13.10;58.40
19248;DHT22;9758;48.640;8.148;2022-09-17T06:15:41;13.00;58.30
19248;DHT22;9758;48.640;8.148;2022-09-17T06:18:08;13.10;58.50
19248;DHT22;9758;48.640;8.148;2022-09-17T06:20:35;13.00;58.40
19248;DHT22;9758;48.640;8.148;2022-09-17T06:23:01;13.00;58.40
19248;DHT22;9758;48.640;8.148;2022-09-17T06:25:28;13.10;58.40
19248;DHT22;9758;48.640;8.148;2022-09-17T06:27:56;13.10;58.40
19248;DHT22;9758;48.640;8.148;2022-09-17T06:30:26;13.10;58.30
19248;DHT22;9758;48.640;8.148;2022-09-17T06:32:53;13.10;58.30
19248;DHT22;9758;48.640;8.148;2022-09-17T06:35:20;13.00;58.30
19248;DHT22;9758;48.640;8.148;2022-09-17T06:37:47;13.10;58.40
19248;DHT22;9758;48.640;8.148;2022-09-17T06:40:14;13.00;58.30
19248;DHT22;9758;48.640;8.148;2022-09-17T06:42:41;13.00;58.40
19248;DHT22;9758;48.640;8.148;2022-09-17T06:45:08;13.00;58.40
19248;DHT22;9758;48.640;8.148;2022-09-17T06:47:36;13.10;58.40
19248;DHT22;9758;48.640;8.148;2022-09-17T06:50:04;13.10;58.40
19248;DHT22;9758;48.640;8.148;2022-09-17T06:52:32;13.10;58.40
19248;DHT22;9758;48.640;8.148;2022-09-17T06:55:00;13.10;58.40
19248;DHT22;9758;48.640;8.148;2022-09-17T06:57:28;13.10;58.40
19248;DHT22;9758;48.640;8.148;2022-09-17T06:59:55;13.10;58.40
19248;DHT22;9758;48.640;8.148;2022-09-17T07:02:22;13.10;58.20
19248;DHT22;9758;48.640;8.148;2022-09-17T07:04:51;13.10;58.30
19248;DHT22;9758;48.640;8.148;2022-09-17T07:07:19;13.10;58.40
19248;DHT22;9758;48.640;8.148;2022-09-17T07:09:47;13.10;58.40
19248;DHT22;9758;48.640;8.148;2022-09-17T07:12:16;13.10;58.20
19248;DHT22;9758;48.640;8.148;2022-09-17T07:14:44;13.10;58.20
19248;DHT22;9758;48.640;8.148;2022-09-17T07:17:12;13.10;58.20
19248;DHT22;9758;48.640;8.148;2022-09-17T07:19:44;13.00;58.20
19248;DHT22;9758;48.640;8.148;2022-09-17T07:22:13;13.00;58.30
19248;DHT22;9758;48.640;8.148;2022-09-17T07:24:42;12.90;58.40
19248;DHT22;9758;48.640;8.148;2022-09-17T07:27:09;12.90;58.50
19248;DHT22;9758;48.640;8.148;2022-09-17T07:29:36;13.00;58.60
19248;DHT22;9758;48.640;8.148;2022-09-17T07:32:04;13.00;58.50
19248;DHT22;9758;48.640;8.148;2022-09-17T07:34:35;13.00;58.40
19248;DHT22;9758;48.640;8.148;2022-09-17T07:37:02;13.00;58.40
19248;DHT22;9758;48.640;8.148;2022-09-17T07:39:32;13.00;58.50
19248;DHT22;9758;48.640;8.148;2022-09-17T07:42:01;13.00;58.50
19248;DHT22;9758;48.640;8.148;2022-09-17T07:44:29;13.00;58.50
19248;DHT22;9758;48.640;8.148;2022-09-17T07:46:59;13.10;58.50
19248;DHT22;9758;48.640;8.148;2022-09-17T07:49:28;13.10;58.50
19248;DHT22;9758;48.640;8.148;2022-09-17T07:51:55;13.10;58.40
19248;DHT22;9758;48.640;8.148;2022-09-17T07:54:22;13.10;58.50
19248;DHT22;9758;48.640;8.148;2022-09-17T07:56:52;13.10;58.50
19248;DHT22;9758;48.640;8.148;2022-09-17T07:59:19;13.20;58.50
19248;DHT22;9758;48.640;8.148;2022-09-17T08:01:47;13.20;58.40
19248;DHT22;9758;48.640;8.148;2022-09-17T08:04:14;13.10;58.30
19248;DHT22;9758;48.640;8.148;2022-09-17T08:06:41;13.10;58.40
19248;DHT22;9758;48.640;8.148;2022-09-17T08:09:14;13.10;59.20
19248;DHT22;9758;48.640;8.148;2022-09-17T08:11:43;13.10;58.60
19248;DHT22;9758;48.640;8.148;2022-09-17T08:14:13;13.10;58.60
19248;DHT22;9758;48.640;8.148;2022-09-17T08:16:44;13.20;58.60
19248;DHT22;9758;48.640;8.148;2022-09-17T08:19:13;13.10;59.10
19248;DHT22;9758;48.640;8.148;2022-09-17T08:21:40;13.10;58.50
19248;DHT22;9758;48.640;8.148;2022-09-17T08:24:07;13.20;58.70
19248;DHT22;9758;48.640;8.148;2022-09-17T08:26:34;13.20;58.60
19248;DHT22;9758;48.640;8.148;2022-09-17T08:29:05;13.20;58.60
19248;DHT22;9758;48.640;8.148;2022-09-17T08:31:33;13.20;58.60
19248;DHT22;9758;48.640;8.148;2022-09-17T08:34:06;13.30;58.60
19248;DHT22;9758;48.640;8.148;2022-09-17T08:36:34;13.40;58.60
19248;DHT22;9758;48.640;8.148;2022-09-17T08:39:02;13.40;58.50
19248;DHT22;9758;48.640;8.148;2022-09-17T08:41:44;13.40;58.50
19248;DHT22;9758;48.640;8.148;2022-09-17T08:44:21;13.40;58.40
19248;DHT22;9758;48.640;8.148;2022-09-17T08:46:53;13.50;58.40
19248;DHT22;9758;48.640;8.148;2022-09-17T08:49:31;13.50;58.30
19248;DHT22;9758;48.640;8.148;2022-09-17T08:52:15;13.50;58.30
19248;DHT22;9758;48.640;8.148;2022-09-17T08:54:49;13.50;58.30
19248;DHT22;9758;48.640;8.148;2022-09-17T08:57:25;13.50;58.20
19248;DHT22;9758;48.640;8.148;2022-09-17T09:00:00;13.50;58.30
19248;DHT22;9758;48.640;8.148;2022-09-17T09:02:44;13.40;58.30
19248;DHT22;9758;48.640;8.148;2022-09-17T09:05:17;13.40;58.40
19248;DHT22;9758;48.640;8.148;2022-09-17T09:07:48;13.40;58.40
19248;DHT22;9758;48.640;8.148;2022-09-17T09:10:19;13.40;58.50
19248;DHT22;9758;48.640;8.148;2022-09-17T09:12:48;13.50;58.60
19248;DHT22;9758;48.640;8.148;2022-09-17T09:15:32;13.50;58.50
19248;DHT22;9758;48.640;8.148;2022-09-17T09:18:12;13.60;58.50
19248;DHT22;9758;48.640;8.148;2022-09-17T09:20:48;13.60;58.50
19248;DHT22;9758;48.640;8.148;2022-09-17T09:23:19;13.70;58.40
19248;DHT22;9758;48.640;8.148;2022-09-17T09:25:53;13.80;58.40
19248;DHT22;9758;48.640;8.148;2022-09-17T09:28:36;13.80;58.40
19248;DHT22;9758;48.640;8.148;2022-09-17T09:31:14;13.90;58.50
19248;DHT22;9758;48.640;8.148;2022-09-17T09:33:45;13.90;58.40
19248;DHT22;9758;48.640;8.148;2022-09-17T09:36:14;14.00;58.40
19248;DHT22;9758;48.640;8.148;2022-09-17T09:38:49;14.10;58.30
19248;DHT22;9758;48.640;8.148;2022-09-17T09:41:23;14.10;58.30
19248;DHT22;9758;48.640;8.148;2022-09-17T09:43:58;14.20;58.30
19248;DHT22;9758;48.640;8.148;2022-09-17T09:46:46;14.30;58.20
19248;DHT22;9758;48.640;8.148;2022-09-17T09:49:24;14.30;58.20
19248;DHT22;9758;48.640;8.148;2022-09-17T09:52:03;14.40;58.70
19248;DHT22;9758;48.640;8.148;2022-09-17T09:54:43;14.40;58.10
19248;DHT22;9758;48.640;8.148;2022-09-17T09:57:13;14.50;58.10
19248;DHT22;9758;48.640;8.148;2022-09-17T09:59:41;14.50;58.10
19248;DHT22;9758;48.640;8.148;2022-09-17T10:02:09;14.60;58.20
19248;DHT22;9758;48.640;8.148;2022-09-17T10:04:37;14.70;58.20
19248;DHT22;9758;48.640;8.148;2022-09-17T10:07:05;14.80;58.20
19248;DHT22;9758;48.640;8.148;2022-09-17T10:09:33;15.00;58.20
19248;DHT22;9758;48.640;8.148;2022-09-17T10:12:14;15.10;58.10
19248;DHT22;9758;48.640;8.148;2022-09-17T10:14:42;15.20;58.10
19248;DHT22;9758;48.640;8.148;2022-09-17T10:17:15;15.30;58.20
19248;DHT22;9758;48.640;8.148;2022-09-17T10:19:44;15.50;58.20
19248;DHT22;9758;48.640;8.148;2022-09-17T10:22:21;15.60;58.00
19248;DHT22;9758;48.640;8.148;2022-09-17T10:24:50;15.80;58.00
19248;DHT22;9758;48.640;8.148;2022-09-17T10:27:18;15.90;57.70
19248;DHT22;9758;48.640;8.148;2022-09-17T10:29:48;15.90;57.50
19248;DHT22;9758;48.640;8.148;2022-09-17T10:32:17;15.90;57.40
19248;DHT22;9758;48.640;8.148;2022-09-17T10:34:58;16.00;57.20
19248;DHT22;9758;48.640;8.148;2022-09-17T10:37:34;15.90;57.10
19248;DHT22;9758;48.640;8.148;2022-09-17T10:40:25;15.90;57.30
19248;DHT22;9758;48.640;8.148;2022-09-17T10:43:16;15.90;57.20
19248;DHT22;9758;48.640;8.148;2022-09-17T10:45:45;15.90;57.30
19248;DHT22;9758;48.640;8.148;2022-09-17T10:48:20;16.00;57.30
19248;DHT22;9758;48.640;8.148;2022-09-17T10:50:50;16.00;57.50
19248;DHT22;9758;48.640;8.148;2022-09-17T10:53:19;16.10;57.60
19248;DHT22;9758;48.640;8.148;2022-09-17T10:55:51;16.20;57.50
19248;DHT22;9758;48.640;8.148;2022-09-17T10:58:32;16.30;57.40
19248;DHT22;9758;48.640;8.148;2022-09-17T11:01:06;16.40;57.20
19248;DHT22;9758;48.640;8.148;2022-09-17T11:04:01;16.40;57.10
19248;DHT22;9758;48.640;8.148;2022-09-17T11:07:18;16.40;57.10
19248;DHT22;9758;48.640;8.148;2022-09-17T11:09:53;16.50;57.70
19248;DHT22;9758;48.640;8.148;2022-09-17T11:12:33;16.50;57.00
19248;DHT22;9758;48.640;8.148;2022-09-17T11:15:12;16.60;57.00
19248;DHT22;9758;48.640;8.148;2022-09-17T11:18:02;16.70;57.00
19248;DHT22;9758;48.640;8.148;2022-09-17T11:20:51;16.70;57.00
19248;DHT22;9758;48.640;8.148;2022-09-17T11:23:33;16.80;56.80
19248;DHT22;9758;48.640;8.148;2022-09-17T11:26:07;16.80;56.60
19248;DHT22;9758;48.640;8.148;2022-09-17T11:28:47;16.80;56.80
19248;DHT22;9758;48.640;8.148;2022-09-17T11:31:27;16.80;56.90
19248;DHT22;9758;48.640;8.148;2022-09-17T11:34:19;16.90;56.80
19248;DHT22;9758;48.640;8.148;2022-09-17T11:36:54;17.00;56.80
19248;DHT22;9758;48.640;8.148;2022-09-17T11:39:27;17.00;56.70
19248;DHT22;9758;48.640;8.148;2022-09-17T11:42:00;17.00;56.60
19248;DHT22;9758;48.640;8.148;2022-09-17T11:44:31;17.00;56.30
19248;DHT22;9758;48.640;8.148;2022-09-17T11:47:04;16.90;56.30
19248;DHT22;9758;48.640;8.148;2022-09-17T11:49:38;16.80;56.10
19248;DHT22;9758;48.640;8.148;2022-09-17T11:52:11;16.70;56.10
19248;DHT22;9758;48.640;8.148;2022-09-17T11:54:48;16.60;56.20
19248;DHT22;9758;48.640;8.148;2022-09-17T11:57:17;16.40;56.40
19248;DHT22;9758;48.640;8.148;2022-09-17T11:59:49;16.30;56.60
19248;DHT22;9758;48.640;8.148;2022-09-17T12:02:22;16.20;56.80
19248;DHT22;9758;48.640;8.148;2022-09-17T12:04:56;16.30;56.90
19248;DHT22;9758;48.640;8.148;2022-09-17T12:07:30;16.30;57.10
19248;DHT22;9758;48.640;8.148;2022-09-17T12:10:17;16.50;57.30
19248;DHT22;9758;48.640;8.148;2022-09-17T12:12:51;16.60;57.20
19248;DHT22;9758;48.640;8.148;2022-09-17T12:15:21;16.70;56.90
19248;DHT22;9758;48.640;8.148;2022-09-17T12:17:54;16.70;56.70
19248;DHT22;9758;48.640;8.148;2022-09-17T12:20:28;16.70;56.60
19248;DHT22;9758;48.640;8.148;2022-09-17T12:22:57;16.70;56.40
19248;DHT22;9758;48.640;8.148;2022-09-17T12:25:31;16.70;56.30
19248;DHT22;9758;48.640;8.148;2022-09-17T12:28:03;16.60;56.20
19248;DHT22;9758;48.640;8.148;2022-09-17T12:30:36;16.50;56.20
19248;DHT22;9758;48.640;8.148;2022-09-17T12:33:20;16.30;56.40
19248;DHT22;9758;48.640;8.148;2022-09-17T12:36:02;16.20;56.60
19248;DHT22;9758;48.640;8.148;2022-09-17T12:38:52;16.20;56.80
19248;DHT22;9758;48.640;8.148;2022-09-17T12:41:28;16.10;56.90
19248;DHT22;9758;48.640;8.148;2022-09-17T12:44:06;16.20;57.10
19248;DHT22;9758;48.640;8.148;2022-09-17T12:46:53;16.20;56.90
19248;DHT22;9758;48.640;8.148;2022-09-17T12:49:55;16.20;57.00
19248;DHT22;9758;48.640;8.148;2022-09-17T12:52:33;16.20;56.90
19248;DHT22;9758;48.640;8.148;2022-09-17T12:55:23;16.20;56.70
19248;DHT22;9758;48.640;8.148;2022-09-17T12:58:02;16.10;56.60
19248;DHT22;9758;48.640;8.148;2022-09-17T13:00:36;16.10;56.60
19248;DHT22;9758;48.640;8.148;2022-09-17T13:03:14;16.00;56.40
19248;DHT22;9758;48.640;8.148;2022-09-17T13:05:58;15.90;56.60
19248;DHT22;9758;48.640;8.148;2022-09-17T13:11:51;15.90;56.90
19248;DHT22;9758;48.640;8.148;2022-09-17T13:14:32;15.90;57.00
19248;DHT22;9758;48.640;8.148;2022-09-17T13:17:10;15.90;57.10
19248;DHT22;9758;48.640;8.148;2022-09-17T13:19:43;16.00;57.20
19248;DHT22;9758;48.640;8.148;2022-09-17T13:22:21;16.20;57.40
19248;DHT22;9758;48.640;8.148;2022-09-17T13:25:02;16.30;57.40
19248;DHT22;9758;48.640;8.148;2022-09-17T13:27:29;16.50;57.50
19248;DHT22;9758;48.640;8.148;2022-09-17T13:29:59;16.70;57.50
19248;DHT22;9758;48.640;8.148;2022-09-17T13:32:42;16.90;57.50
19248;DHT22;9758;48.640;8.148;2022-09-17T13:35:49;17.10;57.20
19248;DHT22;9758;48.640;8.148;2022-09-17T13:38:17;17.30;56.80
19248;DHT22;9758;48.640;8.148;2022-09-17T13:40:45;17.30;56.50
19248;DHT22;9758;48.640;8.148;2022-09-17T13:43:15;17.30;56.30
19248;DHT22;9758;48.640;8.148;2022-09-17T13:46:07;17.30;56.30
19248;DHT22;9758;48.640;8.148;2022-09-17T13:48:42;17.30;56.40
19248;DHT22;9758;48.640;8.148;2022-09-17T13:51:45;17.40;56.60
19248;DHT22;9758;48.640;8.148;2022-09-17T13:54:14;17.40;56.60
19248;DHT22;9758;48.640;8.148;2022-09-17T13:56:43;17.60;56.80
19248;DHT22;9758;48.640;8.148;2022-09-17T13:59:14;17.70;56.80
19248;DHT22;9758;48.640;8.148;2022-09-17T14:01:58;17.80;56.70
19248;DHT22;9758;48.640;8.148;2022-09-17T14:04:49;17.90;56.50
19248;DHT22;9758;48.640;8.148;2022-09-17T14:07:44;18.00;56.30
19248;DHT22;9758;48.640;8.148;2022-09-17T14:10:43;18.00;56.70
19248;DHT22;9758;48.640;8.148;2022-09-17T14:13:27;18.00;55.90
19248;DHT22;9758;48.640;8.148;2022-09-17T14:16:30;18.00;55.60
19248;DHT22;9758;48.640;8.148;2022-09-17T14:19:03;17.90;55.50
19248;DHT22;9758;48.640;8.148;2022-09-17T14:21:44;17.80;55.60
19248;DHT22;9758;48.640;8.148;2022-09-17T14:24:25;17.60;55.60
19248;DHT22;9758;48.640;8.148;2022-09-17T14:30:18;17.40;55.80
19248;DHT22;9758;48.640;8.148;2022-09-17T14:33:01;17.30;56.10
19248;DHT22;9758;48.640;8.148;2022-09-17T14:35:33;17.30;56.10
19248;DHT22;9758;48.640;8.148;2022-09-17T14:38:06;17.30;56.00
19248;DHT22;9758;48.640;8.148;2022-09-17T14:40:34;17.30;56.00
19248;DHT22;9758;48.640;8.148;2022-09-17T14:43:02;17.30;56.00
19248;DHT22;9758;48.640;8.148;2022-09-17T14:45:31;17.30;56.10
19248;DHT22;9758;48.640;8.148;2022-09-17T14:48:18;17.30;56.00
19248;DHT22;9758;48.640;8.148;2022-09-17T14:50:46;17.20;55.90
19248;DHT22;9758;48.640;8.148;2022-09-17T14:53:15;17.10;55.90
19248;DHT22;9758;48.640;8.148;2022-09-17T14:55:43;17.00;55.90
19248;DHT22;9758;48.640;8.148;2022-09-17T14:58:26;16.90;56.00
19248;DHT22;9758;48.640;8.148;2022-09-17T15:00:55;16.70;56.00
19248;DHT22;9758;48.640;8.148;2022-09-17T15:03:22;16.60;56.20
19248;DHT22;9758;48.640;8.148;2022-09-17T15:05:51;16.60;56.40
19248;DHT22;9758;48.640;8.148;2022-09-17T15:08:19;16.50;56.50
19248;DHT22;9758;48.640;8.148;2022-09-17T15:10:49;16.50;56.50
19248;DHT22;9758;48.640;8.148;2022-09-17T15:13:19;16.40;56.50
19248;DHT22;9758;48.640;8.148;2022-09-17T15:15:57;16.40;56.70
19248;DHT22;9758;48.640;8.148;2022-09-17T15:18:31;16.50;56.80
19248;DHT22;9758;48.640;8.148;2022-09-17T15:21:02;16.50;56.80
19248;DHT22;9758;48.640;8.148;2022-09-17T15:23:31;16.50;56.70
19248;DHT22;9758;48.640;8.148;2022-09-17T15:26:00;16.50;56.70
19248;DHT22;9758;48.640;8.148;2022-09-17T15:28:32;16.50;56.60
19248;DHT22;9758;48.640;8.148;2022-09-17T15:31:00;16.50;56.70
19248;DHT22;9758;48.640;8.148;2022-09-17T15:33:27;16.50;56.80
19248;DHT22;9758;48.640;8.148;2022-09-17T15:36:19;16.60;57.10
19248;DHT22;9758;48.640;8.148;2022-09-17T15:38:47;16.80;57.30
19248;DHT22;9758;48.640;8.148;2022-09-17T15:41:28;16.90;57.10
19248;DHT22;9758;48.640;8.148;2022-09-17T15:44:13;17.10;57.10
19248;DHT22;9758;48.640;8.148;2022-09-17T15:46:42;17.20;56.80
19248;DHT22;9758;48.640;8.148;2022-09-17T15:49:29;17.30;56.60
19248;DHT22;9758;48.640;8.148;2022-09-17T15:52:20;17.30;56.40
19248;DHT22;9758;48.640;8.148;2022-09-17T15:54:50;17.30;56.30
19248;DHT22;9758;48.640;8.148;2022-09-17T15:57:17;17.30;56.10
19248;DHT22;9758;48.640;8.148;2022-09-17T15:59:46;17.30;56.00
19248;DHT22;9758;48.640;8.148;2022-09-17T16:02:24;17.20;55.90
19248;DHT22;9758;48.640;8.148;2022-09-17T16:08:16;16.90;55.90
19248;DHT22;9758;48.640;8.148;2022-09-17T16:10:44;16.80;56.00
19248;DHT22;9758;48.640;8.148;2022-09-17T16:13:10;16.70;56.10
19248;DHT22;9758;48.640;8.148;2022-09-17T16:15:38;16.70;56.20
19248;DHT22;9758;48.640;8.148;2022-09-17T16:18:05;16.60;56.20
19248;DHT22;9758;48.640;8.148;2022-09-17T16:20:32;16.60;56.30
19248;DHT22;9758;48.640;8.148;2022-09-17T16:23:00;16.50;56.20
19248;DHT22;9758;48.640;8.148;2022-09-17T16:25:27;16.50;56.30
19248;DHT22;9758;48.640;8.148;2022-09-17T16:27:57;16.40;56.20
19248;DHT22;9758;48.640;8.148;2022-09-17T16:30:24;16.30;56.20